Pendleton, Louisiana
Current Conditions -  °F | °C
As of 2:56 PM on Friday 19 Dec 2014 (Local Time) from KAQV Reporting Station
Moderate Rain Moderate Rain  
Wind Chill: 45°   Ceiling: 800
Heat Index: 49°   Visibility: 6mi
Dew Point: 47°   Wind: 9mph
Humidity: 93%   Direction: 30°NNE
Pressure: 30.06"   Gusts: NA
Location:  31.6044°N, 93.4433°W
Report Text: KAQV 192056Z AUTO 03008KT 6SM RA BR OVC008 09/08 A3006 RMK AO2 CIG 004V011 SLP181 6//// T00940083 56017 PNO $
Loading
Personal Weather Stations






























Interactive Weather Map New forecast layout! Learn more

10-Day Weather Forecast

Advertisements
Track Severe Weather on mobile